sensor_id;sensor_type;location;lat;lon;timestamp;pressure;altitude;pressure_sealevel;temperature;humidity
21960;BME280;11144;43.030;25.108;2023-03-23T00:00:15;99244.94;;;11.94;100.00
21960;BME280;11144;43.030;25.108;2023-03-23T00:01:48;99244.94;;;11.94;100.00
21960;BME280;11144;43.030;25.108;2023-03-23T00:03:21;99232.75;;;11.90;100.00
21960;BME280;11144;43.030;25.108;2023-03-23T00:04:53;99243.06;;;11.96;100.00
21960;BME280;11144;43.030;25.108;2023-03-23T00:06:26;99238.16;;;11.87;100.00
21960;BME280;11144;43.030;25.108;2023-03-23T00:08:05;99246.66;;;11.95;100.00
21960;BME280;11144;43.030;25.108;2023-03-23T00:09:37;99250.09;;;11.97;100.00
21960;BME280;11144;43.030;25.108;2023-03-23T00:11:12;99263.13;;;12.02;100.00
21960;BME280;11144;43.030;25.108;2023-03-23T00:12:45;99248.13;;;12.02;100.00
21960;BME280;11144;43.030;25.108;2023-03-23T00:14:20;99244.66;;;12.00;100.00
21960;BME280;11144;43.030;25.108;2023-03-23T00:15:54;99249.09;;;12.00;100.00
21960;BME280;11144;43.030;25.108;2023-03-23T00:17:32;99253.53;;;11.99;100.00
21960;BME280;11144;43.030;25.108;2023-03-23T00:19:06;99242.22;;;11.96;100.00
21960;BME280;11144;43.030;25.108;2023-03-23T00:20:38;99247.59;;;11.94;100.00
21960;BME280;11144;43.030;25.108;2023-03-23T00:22:11;99243.34;;;11.90;100.00
21960;BME280;11144;43.030;25.108;2023-03-23T00:23:42;99249.41;;;11.92;100.00
21960;BME280;11144;43.030;25.108;2023-03-23T00:25:15;99228.34;;;11.89;100.00
21960;BME280;11144;43.030;25.108;2023-03-23T00:26:49;99248.63;;;11.90;100.00
21960;BME280;11144;43.030;25.108;2023-03-23T00:28:22;99241.59;;;11.89;100.00
21960;BME280;11144;43.030;25.108;2023-03-23T00:29:55;99245.31;;;11.85;100.00
21960;BME280;11144;43.030;25.108;2023-03-23T00:31:29;99244.47;;;11.85;100.00
21960;BME280;11144;43.030;25.108;2023-03-23T00:33:03;99248.00;;;11.84;100.00
21960;BME280;11144;43.030;25.108;2023-03-23T00:34:36;99235.00;;;11.79;100.00
21960;BME280;11144;43.030;25.108;2023-03-23T00:36:10;99234.19;;;11.77;100.00
21960;BME280;11144;43.030;25.108;2023-03-23T00:37:43;99240.41;;;11.76;100.00
21960;BME280;11144;43.030;25.108;2023-03-23T00:39:16;99220.47;;;11.68;100.00
21960;BME280;11144;43.030;25.108;2023-03-23T00:40:48;99242.94;;;11.79;100.00
21960;BME280;11144;43.030;25.108;2023-03-23T00:42:20;99235.69;;;11.83;100.00
21960;BME280;11144;43.030;25.108;2023-03-23T00:43:53;99233.00;;;11.84;100.00
21960;BME280;11144;43.030;25.108;2023-03-23T00:45:25;99234.00;;;11.82;100.00
21960;BME280;11144;43.030;25.108;2023-03-23T00:46:58;99233.13;;;11.81;100.00
21960;BME280;11144;43.030;25.108;2023-03-23T00:48:30;99228.75;;;11.80;100.00
21960;BME280;11144;43.030;25.108;2023-03-23T00:50:04;99226.22;;;11.77;100.00
21960;BME280;11144;43.030;25.108;2023-03-23T00:51:36;99222.00;;;11.73;100.00
21960;BME280;11144;43.030;25.108;2023-03-23T00:53:07;99229.94;;;11.73;100.00
21960;BME280;11144;43.030;25.108;2023-03-23T00:54:40;99225.75;;;11.68;100.00
21960;BME280;11144;43.030;25.108;2023-03-23T00:56:13;99222.16;;;11.69;100.00
21960;BME280;11144;43.030;25.108;2023-03-23T00:57:45;99224.75;;;11.70;100.00
21960;BME280;11144;43.030;25.108;2023-03-23T00:59:20;99224.75;;;11.70;100.00
21960;BME280;11144;43.030;25.108;2023-03-23T01:00:52;99219.47;;;11.70;100.00
21960;BME280;11144;43.030;25.108;2023-03-23T01:02:26;99223.75;;;11.73;100.00
21960;BME280;11144;43.030;25.108;2023-03-23T01:03:58;99229.94;;;11.73;100.00
21960;BME280;11144;43.030;25.108;2023-03-23T01:05:35;99231.53;;;11.77;100.00
21960;BME280;11144;43.030;25.108;2023-03-23T01:07:07;99225.63;;;11.71;100.00
21960;BME280;11144;43.030;25.108;2023-03-23T01:08:44;99228.34;;;11.69;100.00
21960;BME280;11144;43.030;25.108;2023-03-23T01:10:16;99226.50;;;11.71;100.00
21960;BME280;11144;43.030;25.108;2023-03-23T01:11:50;99227.22;;;11.75;100.00
21960;BME280;11144;43.030;25.108;2023-03-23T01:13:22;99220.16;;;11.75;100.00
21960;BME280;11144;43.030;25.108;2023-03-23T01:14:55;99224.50;;;11.76;100.00
21960;BME280;11144;43.030;25.108;2023-03-23T01:16:27;99208.09;;;11.68;100.00
21960;BME280;11144;43.030;25.108;2023-03-23T01:18:02;99224.44;;;11.78;100.00
21960;BME280;11144;43.030;25.108;2023-03-23T01:19:33;99220.94;;;11.77;100.00
21960;BME280;11144;43.030;25.108;2023-03-23T01:21:06;99225.34;;;11.77;100.00
21960;BME280;11144;43.030;25.108;2023-03-23T01:22:39;99220.34;;;11.71;100.00
21960;BME280;11144;43.030;25.108;2023-03-23T01:24:11;99226.63;;;11.68;100.00
21960;BME280;11144;43.030;25.108;2023-03-23T01:25:43;99227.47;;;11.69;100.00
21960;BME280;11144;43.030;25.108;2023-03-23T01:27:16;99227.41;;;11.70;100.00
21960;BME280;11144;43.030;25.108;2023-03-23T01:28:48;99233.63;;;11.69;100.00
21960;BME280;11144;43.030;25.108;2023-03-23T01:30:20;99225.69;;;11.69;100.00
21960;BME280;11144;43.030;25.108;2023-03-23T01:31:51;99227.41;;;11.70;100.00
21960;BME280;11144;43.030;25.108;2023-03-23T01:33:25;99227.63;;;11.66;100.00
21960;BME280;11144;43.030;25.108;2023-03-23T01:34:56;99228.59;;;11.63;100.00
21960;BME280;11144;43.030;25.108;2023-03-23T01:36:30;99232.22;;;11.61;100.00
21960;BME280;11144;43.030;25.108;2023-03-23T01:38:07;99236.84;;;11.56;100.00
21960;BME280;11144;43.030;25.108;2023-03-23T01:39:39;99225.00;;;11.43;100.00
21960;BME280;11144;43.030;25.108;2023-03-23T01:41:14;99241.75;;;11.43;100.00
21960;BME280;11144;43.030;25.108;2023-03-23T01:42:46;99233.75;;;11.45;100.00
21960;BME280;11144;43.030;25.108;2023-03-23T01:46:26;99236.03;;;11.32;100.00
21960;BME280;11144;43.030;25.108;2023-03-23T01:48:02;99228.16;;;11.31;100.00
21960;BME280;11144;43.030;25.108;2023-03-23T01:49:39;99228.97;;;11.33;100.00
21960;BME280;11144;43.030;25.108;2023-03-23T01:51:14;99235.38;;;11.27;100.00
21960;BME280;11144;43.030;25.108;2023-03-23T01:52:50;99234.44;;;11.28;100.00
21960;BME280;11144;43.030;25.108;2023-03-23T01:54:23;99233.91;;;11.20;100.00
21960;BME280;11144;43.030;25.108;2023-03-23T01:55:57;99237.22;;;11.25;100.00
21960;BME280;11144;43.030;25.108;2023-03-23T01:57:30;99240.53;;;11.30;100.00
21960;BME280;11144;43.030;25.108;2023-03-23T01:59:04;99233.28;;;11.35;100.00
21960;BME280;11144;43.030;25.108;2023-03-23T02:00:37;99240.41;;;11.33;100.00
21960;BME280;11144;43.030;25.108;2023-03-23T02:02:11;99235.16;;;11.32;100.00
21960;BME280;11144;43.030;25.108;2023-03-23T02:03:45;99240.53;;;11.30;100.00
21960;BME280;11144;43.030;25.108;2023-03-23T02:05:24;99239.84;;;11.25;100.00
21960;BME280;11144;43.030;25.108;2023-03-23T02:06:59;99246.06;;;11.24;100.00
21960;BME280;11144;43.030;25.108;2023-03-23T02:08:33;99242.63;;;11.22;100.00
21960;BME280;11144;43.030;25.108;2023-03-23T02:10:07;99241.13;;;11.15;100.00
21960;BME280;11144;43.030;25.108;2023-03-23T02:11:40;99243.84;;;11.14;100.00
21960;BME280;11144;43.030;25.108;2023-03-23T02:13:13;99239.59;;;11.10;100.00
21960;BME280;11144;43.030;25.108;2023-03-23T02:14:46;99254.41;;;10.92;100.00
21960;BME280;11144;43.030;25.108;2023-03-23T02:16:24;99251.91;;;10.88;100.00
21960;BME280;11144;43.030;25.108;2023-03-23T02:18:02;99258.09;;;10.88;100.00
21960;BME280;11144;43.030;25.108;2023-03-23T02:20:04;99256.69;;;10.78;100.00
21960;BME280;11144;43.030;25.108;2023-03-23T02:21:59;99254.16;;;10.75;100.00
21960;BME280;11144;43.030;25.108;2023-03-23T02:23:54;99264.63;;;10.78;100.00
21960;BME280;11144;43.030;25.108;2023-03-23T02:25:46;99270.97;;;10.74;100.00
21960;BME280;11144;43.030;25.108;2023-03-23T02:29:48;99273.03;;;10.66;100.00
21960;BME280;11144;43.030;25.108;2023-03-23T02:31:46;99275.47;;;10.72;100.00
21960;BME280;11144;43.030;25.108;2023-03-23T02:33:44;99274.31;;;10.79;100.00
21960;BME280;11144;43.030;25.108;2023-03-23T02:35:20;99269.97;;;10.77;100.00
21960;BME280;11144;43.030;25.108;2023-03-23T02:36:59;99268.31;;;10.74;100.00
21960;BME280;11144;43.030;25.108;2023-03-23T02:38:37;99274.84;;;10.89;100.00
21960;BME280;11144;43.030;25.108;2023-03-23T02:40:13;99273.09;;;10.88;100.00
21960;BME280;11144;43.030;25.108;2023-03-23T02:41:51;99280.97;;;10.89;100.00
21960;BME280;11144;43.030;25.108;2023-03-23T02:43:31;99280.06;;;10.90;100.00
21960;BME280;11144;43.030;25.108;2023-03-23T02:45:08;99275.44;;;10.95;100.00
21960;BME280;11144;43.030;25.108;2023-03-23T02:46:42;99273.59;;;10.97;100.00
21960;BME280;11144;43.030;25.108;2023-03-23T02:48:18;99279.69;;;10.99;100.00
21960;BME280;11144;43.030;25.108;2023-03-23T02:49:55;99278.88;;;10.97;100.00
21960;BME280;11144;43.030;25.108;2023-03-23T02:51:29;99282.56;;;10.93;100.00
21960;BME280;11144;43.030;25.108;2023-03-23T02:53:01;99281.72;;;10.93;100.00
21960;BME280;11144;43.030;25.108;2023-03-23T02:54:35;99272.00;;;10.93;100.00
21960;BME280;11144;43.030;25.108;2023-03-23T02:56:09;99284.31;;;10.94;100.00
21960;BME280;11144;43.030;25.108;2023-03-23T02:57:43;99280.97;;;10.89;100.00
21960;BME280;11144;43.030;25.108;2023-03-23T02:59:18;99279.97;;;10.92;100.00
21960;BME280;11144;43.030;25.108;2023-03-23T03:00:53;99277.41;;;10.90;100.00
21960;BME280;11144;43.030;25.108;2023-03-23T03:02:26;99279.03;;;10.94;100.00
21960;BME280;11144;43.030;25.108;2023-03-23T03:04:01;99282.72;;;10.90;100.00
21960;BME280;11144;43.030;25.108;2023-03-23T03:05:40;99287.91;;;10.92;100.00
21960;BME280;11144;43.030;25.108;2023-03-23T03:07:23;99283.50;;;10.92;100.00
21960;BME280;11144;43.030;25.108;2023-03-23T03:09:03;99289.72;;;10.91;100.00
21960;BME280;11144;43.030;25.108;2023-03-23T03:10:43;99288.00;;;10.90;100.00
21960;BME280;11144;43.030;25.108;2023-03-23T03:12:25;99282.81;;;10.87;100.00
21960;BME280;11144;43.030;25.108;2023-03-23T03:14:05;99289.94;;;10.85;100.00
21960;BME280;11144;43.030;25.108;2023-03-23T03:15:45;99290.81;;;10.86;100.00
21960;BME280;11144;43.030;25.108;2023-03-23T03:17:22;99298.59;;;10.90;100.00
21960;BME280;11144;43.030;25.108;2023-03-23T03:18:57;99300.97;;;10.96;100.00
21960;BME280;11144;43.030;25.108;2023-03-23T03:20:31;99293.03;;;10.96;100.00
21960;BME280;11144;43.030;25.108;2023-03-23T03:22:08;99294.91;;;10.94;100.00
21960;BME280;11144;43.030;25.108;2023-03-23T03:23:45;99295.69;;;10.96;100.00
21960;BME280;11144;43.030;25.108;2023-03-23T03:25:20;99296.63;;;10.95;100.00
21960;BME280;11144;43.030;25.108;2023-03-23T03:26:55;99301.78;;;10.98;100.00
21960;BME280;11144;43.030;25.108;2023-03-23T03:28:36;99298.22;;;10.99;100.00
21960;BME280;11144;43.030;25.108;2023-03-23T03:30:11;99295.63;;;10.98;100.00
21960;BME280;11144;43.030;25.108;2023-03-23T03:31:48;99303.72;;;10.93;100.00
21960;BME280;11144;43.030;25.108;2023-03-23T03:33:22;99301.91;;;10.95;100.00
21960;BME280;11144;43.030;25.108;2023-03-23T03:34:59;99293.28;;;10.90;100.00
21960;BME280;11144;43.030;25.108;2023-03-23T03:36:33;99298.69;;;10.87;100.00
21960;BME280;11144;43.030;25.108;2023-03-23T03:38:11;99303.94;;;10.89;100.00
21960;BME280;11144;43.030;25.108;2023-03-23T03:39:44;99307.31;;;10.92;100.00
21960;BME280;11144;43.030;25.108;2023-03-23T03:41:17;99295.00;;;10.91;100.00
21960;BME280;11144;43.030;25.108;2023-03-23T03:42:51;99310.00;;;10.91;100.00
21960;BME280;11144;43.030;25.108;2023-03-23T03:44:23;99314.31;;;10.93;100.00
21960;BME280;11144;43.030;25.108;2023-03-23T03:45:54;99301.91;;;10.95;100.00
21960;BME280;11144;43.030;25.108;2023-03-23T03:47:26;99313.38;;;10.96;100.00
21960;BME280;11144;43.030;25.108;2023-03-23T03:48:57;99317.66;;;10.98;100.00
21960;BME280;11144;43.030;25.108;2023-03-23T03:50:29;99315.81;;;11.00;100.00
21960;BME280;11144;43.030;25.108;2023-03-23T03:52:04;99321.09;;;11.00;100.00
21960;BME280;11144;43.030;25.108;2023-03-23T03:53:46;99317.53;;;11.01;100.00
21960;BME280;11144;43.030;25.108;2023-03-23T03:55:18;99319.34;;;11.01;100.00
21960;BME280;11144;43.030;25.108;2023-03-23T03:56:53;99317.66;;;10.98;100.00
21960;BME280;11144;43.030;25.108;2023-03-23T03:59:03;99323.94;;;10.96;100.00
21960;BME280;11144;43.030;25.108;2023-03-23T04:00:59;99307.88;;;10.77;100.00
21960;BME280;11144;43.030;25.108;2023-03-23T04:02:35;99315.81;;;10.77;100.00
21960;BME280;11144;43.030;25.108;2023-03-23T04:04:06;99318.25;;;10.83;100.00
21960;BME280;11144;43.030;25.108;2023-03-23T04:05:40;99322.50;;;10.87;100.00
21960;BME280;11144;43.030;25.108;2023-03-23T04:07:15;99323.19;;;10.92;100.00
21960;BME280;11144;43.030;25.108;2023-03-23T04:08:49;99319.59;;;10.93;100.00
21960;BME280;11144;43.030;25.108;2023-03-23T04:10:21;99321.22;;;10.97;100.00
21960;BME280;11144;43.030;25.108;2023-03-23T04:11:59;99321.09;;;11.00;100.00
21960;BME280;11144;43.030;25.108;2023-03-23T04:13:49;99322.72;;;11.04;100.00
21960;BME280;11144;43.030;25.108;2023-03-23T04:15:26;99333.28;;;11.04;100.00
21960;BME280;11144;43.030;25.108;2023-03-23T04:16:59;99327.16;;;11.04;100.00
21960;BME280;11144;43.030;25.108;2023-03-23T04:18:31;99331.75;;;10.99;100.00
21960;BME280;11144;43.030;25.108;2023-03-23T04:20:05;99326.28;;;11.03;100.00
21960;BME280;11144;43.030;25.108;2023-03-23T04:21:42;99332.41;;;11.05;100.00
21960;BME280;11144;43.030;25.108;2023-03-23T04:23:17;99327.88;;;11.07;100.00
21960;BME280;11144;43.030;25.108;2023-03-23T04:24:53;99329.50;;;11.11;100.00
21960;BME280;11144;43.030;25.108;2023-03-23T04:26:26;99334.75;;;11.13;100.00
21960;BME280;11144;43.030;25.108;2023-03-23T04:27:59;99329.38;;;11.14;100.00
21960;BME280;11144;43.030;25.108;2023-03-23T04:29:37;99331.09;;;11.15;100.00
21960;BME280;11144;43.030;25.108;2023-03-23T04:31:09;99331.09;;;11.15;100.00
21960;BME280;11144;43.030;25.108;2023-03-23T04:32:50;99332.19;;;11.10;100.00
21960;BME280;11144;43.030;25.108;2023-03-23T04:34:28;99329.75;;;11.05;100.00
21960;BME280;11144;43.030;25.108;2023-03-23T04:36:05;99329.84;;;11.02;100.00
21960;BME280;11144;43.030;25.108;2023-03-23T04:37:42;99327.44;;;10.96;100.00
21960;BME280;11144;43.030;25.108;2023-03-23T04:39:18;99332.03;;;10.91;100.00
21960;BME280;11144;43.030;25.108;2023-03-23T04:40:52;99331.56;;;10.80;100.00
21960;BME280;11144;43.030;25.108;2023-03-23T04:42:44;99341.28;;;10.80;100.00
21960;BME280;11144;43.030;25.108;2023-03-23T04:44:40;99342.31;;;10.76;100.00
21960;BME280;11144;43.030;25.108;2023-03-23T04:46:19;99344.53;;;10.63;100.00
21960;BME280;11144;43.030;25.108;2023-03-23T04:47:54;99337.63;;;10.59;100.00
21960;BME280;11144;43.030;25.108;2023-03-23T04:49:37;99339.34;;;10.60;100.00
21960;BME280;11144;43.030;25.108;2023-03-23T04:51:22;99346.59;;;10.55;100.00
21960;BME280;11144;43.030;25.108;2023-03-23T04:52:57;99339.59;;;10.54;100.00
21960;BME280;11144;43.030;25.108;2023-03-23T04:54:29;99339.69;;;10.51;100.00
21960;BME280;11144;43.030;25.108;2023-03-23T04:56:05;99351.38;;;10.44;100.00
21960;BME280;11144;43.030;25.108;2023-03-23T04:57:44;99344.47;;;10.40;100.00
21960;BME280;11144;43.030;25.108;2023-03-23T04:59:35;99348.06;;;10.39;100.00
21960;BME280;11144;43.030;25.108;2023-03-23T05:01:33;99359.47;;;10.39;100.00
21960;BME280;11144;43.030;25.108;2023-03-23T05:03:20;99362.28;;;10.35;100.00
21960;BME280;11144;43.030;25.108;2023-03-23T05:04:55;99360.78;;;10.28;100.00
21960;BME280;11144;43.030;25.108;2023-03-23T05:06:29;99360.78;;;10.28;100.00
21960;BME280;11144;43.030;25.108;2023-03-23T05:08:07;99360.78;;;10.28;100.00
21960;BME280;11144;43.030;25.108;2023-03-23T05:09:46;99364.38;;;10.25;100.00
21960;BME280;11144;43.030;25.108;2023-03-23T05:11:22;99355.69;;;10.22;100.00
21960;BME280;11144;43.030;25.108;2023-03-23T05:12:54;99366.16;;;10.25;100.00
21960;BME280;11144;43.030;25.108;2023-03-23T05:14:27;99361.63;;;10.28;100.00
21960;BME280;11144;43.030;25.108;2023-03-23T05:16:21;99364.16;;;10.31;100.00
21960;BME280;11144;43.030;25.108;2023-03-23T05:17:53;99362.41;;;10.32;100.00
21960;BME280;11144;43.030;25.108;2023-03-23T05:19:26;99360.81;;;10.26;100.00
21960;BME280;11144;43.030;25.108;2023-03-23T05:21:03;99371.00;;;10.37;100.00
21960;BME280;11144;43.030;25.108;2023-03-23T05:22:40;99353.88;;;10.24;100.00
21960;BME280;11144;43.030;25.108;2023-03-23T05:24:13;99369.31;;;10.36;100.00
21960;BME280;11144;43.030;25.108;2023-03-23T05:25:52;99365.78;;;10.35;100.00
21960;BME280;11144;43.030;25.108;2023-03-23T05:27:26;99369.41;;;10.33;100.00
21960;BME280;11144;43.030;25.108;2023-03-23T05:29:02;99371.22;;;10.31;100.00
21960;BME280;11144;43.030;25.108;2023-03-23T05:30:46;99376.50;;;10.31;100.00
21960;BME280;11144;43.030;25.108;2023-03-23T05:32:20;99378.25;;;10.32;100.00
21960;BME280;11144;43.030;25.108;2023-03-23T05:33:59;99378.16;;;10.35;100.00
21960;BME280;11144;43.030;25.108;2023-03-23T05:35:41;99374.47;;;10.39;100.00
21960;BME280;11144;43.030;25.108;2023-03-23T05:37:13;99388.41;;;10.44;100.00
21960;BME280;11144;43.030;25.108;2023-03-23T05:38:54;99381.38;;;10.43;100.00
21960;BME280;11144;43.030;25.108;2023-03-23T05:40:29;99383.00;;;10.47;100.00
21960;BME280;11144;43.030;25.108;2023-03-23T05:42:14;99388.06;;;10.53;100.00
21960;BME280;11144;43.030;25.108;2023-03-23T05:43:54;99384.53;;;10.54;100.00
21960;BME280;11144;43.030;25.108;2023-03-23T05:45:36;99387.97;;;10.56;100.00
21960;BME280;11144;43.030;25.108;2023-03-23T05:47:09;99396.72;;;10.58;100.00
21960;BME280;11144;43.030;25.108;2023-03-23T05:48:44;99391.34;;;10.61;100.00
21960;BME280;11144;43.030;25.108;2023-03-23T05:50:20;99392.94;;;10.65;100.00
21960;BME280;11144;43.030;25.108;2023-03-23T05:51:52;99398.94;;;10.70;100.00
21960;BME280;11144;43.030;25.108;2023-03-23T05:53:25;99394.47;;;10.72;100.00
21960;BME280;11144;43.030;25.108;2023-03-23T05:54:58;99398.88;;;10.72;100.00
21960;BME280;11144;43.030;25.108;2023-03-23T05:56:31;99401.56;;;10.70;100.00
21960;BME280;11144;43.030;25.108;2023-03-23T05:58:27;99407.75;;;10.71;100.00
21960;BME280;11144;43.030;25.108;2023-03-23T06:00:01;99399.22;;;10.63;100.00
21960;BME280;11144;43.030;25.108;2023-03-23T06:01:45;99405.44;;;10.60;100.00
21960;BME280;11144;43.030;25.108;2023-03-23T06:03:18;99412.69;;;10.55;100.00
21960;BME280;11144;43.030;25.108;2023-03-23T06:05:00;99415.38;;;10.54;100.00
21960;BME280;11144;43.030;25.108;2023-03-23T06:06:36;99417.03;;;10.56;100.00
21960;BME280;11144;43.030;25.108;2023-03-23T06:08:12;99410.72;;;10.60;100.00
21960;BME280;11144;43.030;25.108;2023-03-23T06:09:44;99413.31;;;10.62;100.00
21960;BME280;11144;43.030;25.108;2023-03-23T06:11:37;99421.22;;;10.63;100.00
21960;BME280;11144;43.030;25.108;2023-03-23T06:13:29;99414.09;;;10.65;100.00
21960;BME280;11144;43.030;25.108;2023-03-23T06:15:11;99414.09;;;10.65;100.00
21960;BME280;11144;43.030;25.108;2023-03-23T06:17:22;99424.44;;;10.71;100.00
21960;BME280;11144;43.030;25.108;2023-03-23T06:18:57;99422.56;;;10.75;100.00
21960;BME280;11144;43.030;25.108;2023-03-23T06:20:35;99424.34;;;10.74;100.00
21960;BME280;11144;43.030;25.108;2023-03-23T06:22:20;99422.44;;;10.79;100.00
21960;BME280;11144;43.030;25.108;2023-03-23T06:24:12;99418.75;;;10.83;100.00
21960;BME280;11144;43.030;25.108;2023-03-23T06:25:44;99429.19;;;10.86;100.00
21960;BME280;11144;43.030;25.108;2023-03-23T06:27:17;99427.47;;;10.85;100.00
21960;BME280;11144;43.030;25.108;2023-03-23T06:28:50;99413.66;;;10.77;100.00
21960;BME280;11144;43.030;25.108;2023-03-23T06:30:24;99424.78;;;10.87;100.00
21960;BME280;11144;43.030;25.108;2023-03-23T06:32:00;99436.34;;;10.84;100.00
21960;BME280;11144;43.030;25.108;2023-03-23T06:33:35;99435.50;;;10.82;100.00
21960;BME280;11144;43.030;25.108;2023-03-23T06:35:28;99435.38;;;10.87;100.00
21960;BME280;11144;43.030;25.108;2023-03-23T06:37:18;99432.66;;;10.88;100.00
21960;BME280;11144;43.030;25.108;2023-03-23T06:39:05;99430.84;;;10.90;100.00
21960;BME280;11144;43.030;25.108;2023-03-23T06:40:51;99430.50;;;10.99;100.00
21960;BME280;11144;43.030;25.108;2023-03-23T06:42:24;99429.41;;;11.05;100.00
21960;BME280;11144;43.030;25.108;2023-03-23T06:44:07;99436.13;;;11.15;100.00
21960;BME280;11144;43.030;25.108;2023-03-23T06:45:45;99427.97;;;11.19;100.00
21960;BME280;11144;43.030;25.108;2023-03-23T06:47:50;99427.41;;;11.34;100.00
21960;BME280;11144;43.030;25.108;2023-03-23T06:49:23;99432.50;;;11.40;100.00
21960;BME280;11144;43.030;25.108;2023-03-23T06:51:02;99428.69;;;11.47;100.00
21960;BME280;11144;43.030;25.108;2023-03-23T06:52:35;99437.31;;;11.52;100.00
21960;BME280;11144;43.030;25.108;2023-03-23T06:54:08;99441.47;;;11.59;100.00
21960;BME280;11144;43.030;25.108;2023-03-23T06:55:46;99438.63;;;11.65;100.00
21960;BME280;11144;43.030;25.108;2023-03-23T06:57:19;99436.78;;;11.67;100.00
21960;BME280;11144;43.030;25.108;2023-03-23T06:58:53;99436.78;;;11.67;100.00
21960;BME280;11144;43.030;25.108;2023-03-23T07:00:27;99446.91;;;11.79;100.00
21960;BME280;11144;43.030;25.108;2023-03-23T07:02:02;99448.63;;;11.80;100.00
21960;BME280;11144;43.030;25.108;2023-03-23T07:03:36;99450.59;;;11.75;100.00
21960;BME280;11144;43.030;25.108;2023-03-23T07:05:09;99448.53;;;11.83;100.00
21960;BME280;11144;43.030;25.108;2023-03-23T07:06:42;99448.16;;;11.92;100.00
21960;BME280;11144;43.030;25.108;2023-03-23T07:08:14;99453.22;;;11.98;100.00
21960;BME280;11144;43.030;25.108;2023-03-23T07:09:53;99441.25;;;12.10;100.00
21960;BME280;11144;43.030;25.108;2023-03-23T07:11:28;99439.34;;;12.13;100.00
21960;BME280;11144;43.030;25.108;2023-03-23T07:13:05;99450.88;;;12.12;100.00
21960;BME280;11144;43.030;25.108;2023-03-23T07:14:48;99446.38;;;12.14;100.00
21960;BME280;11144;43.030;25.108;2023-03-23T07:16:20;99446.75;;;12.27;100.00
21960;BME280;11144;43.030;25.108;2023-03-23T07:17:54;99444.03;;;12.28;100.00
21960;BME280;11144;43.030;25.108;2023-03-23T07:19:41;99449.88;;;12.36;100.00
21960;BME280;11144;43.030;25.108;2023-03-23T07:21:16;99442.47;;;12.44;100.00
21960;BME280;11144;43.030;25.108;2023-03-23T07:22:49;99441.03;;;12.57;100.00
21960;BME280;11144;43.030;25.108;2023-03-23T07:24:41;99445.03;;;12.67;100.00
21960;BME280;11144;43.030;25.108;2023-03-23T07:26:24;99445.75;;;12.71;100.00
21960;BME280;11144;43.030;25.108;2023-03-23T07:27:59;99441.13;;;12.76;100.00
21960;BME280;11144;43.030;25.108;2023-03-23T07:29:32;99441.34;;;12.71;100.00
21960;BME280;11144;43.030;25.108;2023-03-23T07:31:13;99436.75;;;12.75;100.00
21960;BME280;11144;43.030;25.108;2023-03-23T07:32:46;99449.59;;;12.64;100.00
21960;BME280;11144;43.030;25.108;2023-03-23T07:34:20;99443.56;;;12.60;100.00
21960;BME280;11144;43.030;25.108;2023-03-23T07:36:18;99441.69;;;12.62;100.00
21960;BME280;11144;43.030;25.108;2023-03-23T07:37:50;99445.28;;;12.61;100.00
21960;BME280;11144;43.030;25.108;2023-03-23T07:39:23;99455.16;;;12.58;100.00
21960;BME280;11144;43.030;25.108;2023-03-23T07:40:59;99451.47;;;12.62;100.00
21960;BME280;11144;43.030;25.108;2023-03-23T07:42:31;99448.72;;;12.63;100.00
21960;BME280;11144;43.030;25.108;2023-03-23T07:44:04;99446.22;;;12.60;100.00
21960;BME280;11144;43.030;25.108;2023-03-23T07:45:40;99444.41;;;12.61;100.00
21960;BME280;11144;43.030;25.108;2023-03-23T07:47:12;99452.59;;;12.56;100.00
21960;BME280;11144;43.030;25.108;2023-03-23T07:48:45;99452.44;;;12.59;100.00
21960;BME280;11144;43.030;25.108;2023-03-23T07:50:19;99444.13;;;12.47;100.00
21960;BME280;11144;43.030;25.108;2023-03-23T07:51:54;99459.75;;;12.54;100.00
21960;BME280;11144;43.030;25.108;2023-03-23T07:53:27;99447.13;;;12.59;100.00
21960;BME280;11144;43.030;25.108;2023-03-23T07:55:12;99459.16;;;12.68;100.00
21960;BME280;11144;43.030;25.108;2023-03-23T07:57:14;99462.41;;;12.74;100.00
21960;BME280;11144;43.030;25.108;2023-03-23T07:58:52;99458.56;;;12.81;100.00
21960;BME280;11144;43.030;25.108;2023-03-23T08:00:25;99464.63;;;12.85;100.00
21960;BME280;11144;43.030;25.108;2023-03-23T08:01:59;99461.84;;;12.88;100.00
21960;BME280;11144;43.030;25.108;2023-03-23T08:03:58;99460.84;;;12.90;100.00
21960;BME280;11144;43.030;25.108;2023-03-23T08:05:58;99468.69;;;12.93;100.00
21960;BME280;11144;43.030;25.108;2023-03-23T08:07:49;99458.06;;;12.93;100.00
21960;BME280;11144;43.030;25.108;2023-03-23T08:09:42;99466.09;;;12.92;100.00
21960;BME280;11144;43.030;25.108;2023-03-23T08:11:36;99466.72;;;12.98;100.00
21960;BME280;11144;43.030;25.108;2023-03-23T08:13:29;99475.19;;;13.06;100.00
21960;BME280;11144;43.030;25.108;2023-03-23T08:15:23;99466.16;;;13.10;100.00
21960;BME280;11144;43.030;25.108;2023-03-23T08:17:15;99464.72;;;13.23;100.00
21960;BME280;11144;43.030;25.108;2023-03-23T08:19:07;99468.84;;;13.30;100.00
21960;BME280;11144;43.030;25.108;2023-03-23T08:21:13;99466.94;;;13.32;100.00
21960;BME280;11144;43.030;25.108;2023-03-23T08:23:24;99470.13;;;13.40;100.00
21960;BME280;11144;43.030;25.108;2023-03-23T08:25:23;99470.50;;;13.51;100.00
21960;BME280;11144;43.030;25.108;2023-03-23T08:27:15;99468.38;;;13.59;100.00
21960;BME280;11144;43.030;25.108;2023-03-23T08:28:47;99457.75;;;13.59;100.00